sensor_id;sensor_type;location;lat;lon;timestamp;temperature;humidity
62476;DHT22;50739;45.670;11.936;2023-08-24T00:02:30;28.85;69.07
62476;DHT22;50739;45.670;11.936;2023-08-24T00:07:33;28.78;69.18
62476;DHT22;50739;45.670;11.936;2023-08-24T00:12:37;28.85;68.98
62476;DHT22;50739;45.670;11.936;2023-08-24T00:17:40;28.69;69.39
62476;DHT22;50739;45.670;11.936;2023-08-24T00:22:42;28.67;69.20
62476;DHT22;50739;45.670;11.936;2023-08-24T00:27:46;28.89;68.83
62476;DHT22;50739;45.670;11.936;2023-08-24T00:32:48;28.48;70.01
62476;DHT22;50739;45.670;11.936;2023-08-24T00:37:51;28.45;70.18
62476;DHT22;50739;45.670;11.936;2023-08-24T00:42:56;28.44;70.28
62476;DHT22;50739;45.670;11.936;2023-08-24T00:47:59;28.43;70.28
62476;DHT22;50739;45.670;11.936;2023-08-24T00:53:01;28.64;69.77
62476;DHT22;50739;45.670;11.936;2023-08-24T00:58:05;28.61;69.97
62476;DHT22;50739;45.670;11.936;2023-08-24T01:03:08;28.57;70.41
62476;DHT22;50739;45.670;11.936;2023-08-24T01:08:10;28.43;70.70
62476;DHT22;50739;45.670;11.936;2023-08-24T01:13:20;28.47;70.37
62476;DHT22;50739;45.670;11.936;2023-08-24T01:18:23;28.44;70.51
62476;DHT22;50739;45.670;11.936;2023-08-24T01:23:34;28.36;70.55
62476;DHT22;50739;45.670;11.936;2023-08-24T01:28:41;28.16;71.09
62476;DHT22;50739;45.670;11.936;2023-08-24T01:33:44;28.03;71.32
62476;DHT22;50739;45.670;11.936;2023-08-24T01:38:52;27.97;71.64
62476;DHT22;50739;45.670;11.936;2023-08-24T01:43:58;28.13;71.29
62476;DHT22;50739;45.670;11.936;2023-08-24T01:49:02;28.04;71.62
62476;DHT22;50739;45.670;11.936;2023-08-24T01:54:06;28.02;71.69
62476;DHT22;50739;45.670;11.936;2023-08-24T01:59:10;27.99;71.79
62476;DHT22;50739;45.670;11.936;2023-08-24T02:04:12;28.07;71.58
62476;DHT22;50739;45.670;11.936;2023-08-24T02:09:15;28.04;71.95
62476;DHT22;50739;45.670;11.936;2023-08-24T02:14:19;27.76;72.17
62476;DHT22;50739;45.670;11.936;2023-08-24T02:19:21;27.51;72.77
62476;DHT22;50739;45.670;11.936;2023-08-24T02:24:24;27.59;72.69
62476;DHT22;50739;45.670;11.936;2023-08-24T02:29:28;27.73;72.26
62476;DHT22;50739;45.670;11.936;2023-08-24T02:34:31;27.48;72.89
62476;DHT22;50739;45.670;11.936;2023-08-24T02:39:33;27.61;72.72
62476;DHT22;50739;45.670;11.936;2023-08-24T02:44:38;27.62;72.71
62476;DHT22;50739;45.670;11.936;2023-08-24T02:49:43;27.45;72.87
62476;DHT22;50739;45.670;11.936;2023-08-24T02:54:45;27.45;72.90
62476;DHT22;50739;45.670;11.936;2023-08-24T02:59:49;27.48;73.60
62476;DHT22;50739;45.670;11.936;2023-08-24T03:04:51;27.55;73.13
62476;DHT22;50739;45.670;11.936;2023-08-24T03:09:56;27.59;72.47
62476;DHT22;50739;45.670;11.936;2023-08-24T03:15:00;27.47;72.74
62476;DHT22;50739;45.670;11.936;2023-08-24T03:20:03;27.49;72.68
62476;DHT22;50739;45.670;11.936;2023-08-24T03:25:06;27.48;72.92
62476;DHT22;50739;45.670;11.936;2023-08-24T03:30:11;27.54;72.96
62476;DHT22;50739;45.670;11.936;2023-08-24T03:35:14;27.45;73.04
62476;DHT22;50739;45.670;11.936;2023-08-24T03:40:17;27.15;73.58
62476;DHT22;50739;45.670;11.936;2023-08-24T03:45:21;26.79;74.73
62476;DHT22;50739;45.670;11.936;2023-08-24T03:50:24;26.80;74.79
62476;DHT22;50739;45.670;11.936;2023-08-24T03:55:26;26.96;74.34
62476;DHT22;50739;45.670;11.936;2023-08-24T04:00:30;27.08;73.62
62476;DHT22;50739;45.670;11.936;2023-08-24T04:05:33;26.93;73.92
62476;DHT22;50739;45.670;11.936;2023-08-24T04:10:35;27.07;73.78
62476;DHT22;50739;45.670;11.936;2023-08-24T04:15:39;26.97;74.03
62476;DHT22;50739;45.670;11.936;2023-08-24T04:20:41;26.63;74.92
62476;DHT22;50739;45.670;11.936;2023-08-24T04:25:44;26.83;74.85
62476;DHT22;50739;45.670;11.936;2023-08-24T04:30:51;26.96;74.28
62476;DHT22;50739;45.670;11.936;2023-08-24T04:35:54;26.97;74.17
62476;DHT22;50739;45.670;11.936;2023-08-24T04:40:56;26.78;74.92
62476;DHT22;50739;45.670;11.936;2023-08-24T04:46:00;26.87;74.89
62476;DHT22;50739;45.670;11.936;2023-08-24T04:51:03;27.00;74.42
62476;DHT22;50739;45.670;11.936;2023-08-24T04:56:05;26.96;74.63
62476;DHT22;50739;45.670;11.936;2023-08-24T05:01:09;26.97;74.85
62476;DHT22;50739;45.670;11.936;2023-08-24T05:06:12;27.06;74.16
62476;DHT22;50739;45.670;11.936;2023-08-24T05:11:18;26.90;74.44
62476;DHT22;50739;45.670;11.936;2023-08-24T05:16:23;26.90;74.20
62476;DHT22;50739;45.670;11.936;2023-08-24T05:21:25;27.07;74.09
62476;DHT22;50739;45.670;11.936;2023-08-24T05:26:27;27.07;73.92
62476;DHT22;50739;45.670;11.936;2023-08-24T05:31:32;27.15;74.24
62476;DHT22;50739;45.670;11.936;2023-08-24T05:36:34;27.34;73.56
62476;DHT22;50739;45.670;11.936;2023-08-24T05:41:36;27.33;73.95
62476;DHT22;50739;45.670;11.936;2023-08-24T05:46:40;27.47;73.24
62476;DHT22;50739;45.670;11.936;2023-08-24T05:51:43;27.33;73.76
62476;DHT22;50739;45.670;11.936;2023-08-24T05:56:45;27.55;73.40
62476;DHT22;50739;45.670;11.936;2023-08-24T06:01:49;27.75;72.91
62476;DHT22;50739;45.670;11.936;2023-08-24T06:06:52;27.79;72.69
62476;DHT22;50739;45.670;11.936;2023-08-24T06:11:54;27.99;72.31
62476;DHT22;50739;45.670;11.936;2023-08-24T06:16:58;27.97;72.30
62476;DHT22;50739;45.670;11.936;2023-08-24T06:22:00;28.02;72.62
62476;DHT22;50739;45.670;11.936;2023-08-24T06:27:03;28.30;71.82
62476;DHT22;50739;45.670;11.936;2023-08-24T06:32:06;28.39;71.49
62476;DHT22;50739;45.670;11.936;2023-08-24T06:37:09;28.48;71.40
62476;DHT22;50739;45.670;11.936;2023-08-24T06:42:37;28.64;71.50
62476;DHT22;50739;45.670;11.936;2023-08-24T06:47:45;28.80;71.42
62476;DHT22;50739;45.670;11.936;2023-08-24T06:52:47;28.96;71.11
62476;DHT22;50739;45.670;11.936;2023-08-24T06:57:49;28.95;70.72
62476;DHT22;50739;45.670;11.936;2023-08-24T07:02:53;29.13;70.31
62476;DHT22;50739;45.670;11.936;2023-08-24T07:07:55;29.31;69.30
62476;DHT22;50739;45.670;11.936;2023-08-24T07:12:58;29.43;67.96
62476;DHT22;50739;45.670;11.936;2023-08-24T07:18:02;29.57;67.42
62476;DHT22;50739;45.670;11.936;2023-08-24T07:23:06;29.65;66.94
62476;DHT22;50739;45.670;11.936;2023-08-24T07:28:08;29.86;67.29
62476;DHT22;50739;45.670;11.936;2023-08-24T07:33:12;30.06;67.66
62476;DHT22;50739;45.670;11.936;2023-08-24T07:38:14;30.20;67.22
62476;DHT22;50739;45.670;11.936;2023-08-24T07:43:16;30.35;64.87
62476;DHT22;50739;45.670;11.936;2023-08-24T07:48:20;30.46;62.50
62476;DHT22;50739;45.670;11.936;2023-08-24T07:53:22;30.54;62.94
62476;DHT22;50739;45.670;11.936;2023-08-24T07:58:25;30.65;63.06
62476;DHT22;50739;45.670;11.936;2023-08-24T08:03:29;30.71;61.48
62476;DHT22;50739;45.670;11.936;2023-08-24T08:08:32;30.88;62.99
62476;DHT22;50739;45.670;11.936;2023-08-24T08:13:34;30.99;61.41
62476;DHT22;50739;45.670;11.936;2023-08-24T08:18:38;31.23;61.04
62476;DHT22;50739;45.670;11.936;2023-08-24T08:23:40;31.25;60.26
62476;DHT22;50739;45.670;11.936;2023-08-24T08:28:43;31.36;61.34
62476;DHT22;50739;45.670;11.936;2023-08-24T08:33:49;31.49;58.88
62476;DHT22;50739;45.670;11.936;2023-08-24T08:38:51;31.64;59.08
62476;DHT22;50739;45.670;11.936;2023-08-24T08:44:05;31.80;58.71
62476;DHT22;50739;45.670;11.936;2023-08-24T08:49:12;31.88;59.33
62476;DHT22;50739;45.670;11.936;2023-08-24T08:54:16;32.07;58.54
62476;DHT22;50739;45.670;11.936;2023-08-24T08:59:19;32.27;57.85
62476;DHT22;50739;45.670;11.936;2023-08-24T09:04:25;32.22;58.90
62476;DHT22;50739;45.670;11.936;2023-08-24T09:09:28;32.39;58.09
62476;DHT22;50739;45.670;11.936;2023-08-24T09:14:30;32.53;58.98
62476;DHT22;50739;45.670;11.936;2023-08-24T09:19:34;32.62;57.45
62476;DHT22;50739;45.670;11.936;2023-08-24T09:24:39;32.70;57.11
62476;DHT22;50739;45.670;11.936;2023-08-24T09:29:41;32.80;56.55
62476;DHT22;50739;45.670;11.936;2023-08-24T09:34:45;32.97;56.57
62476;DHT22;50739;45.670;11.936;2023-08-24T09:39:47;32.99;56.21
62476;DHT22;50739;45.670;11.936;2023-08-24T09:44:50;33.07;55.81
62476;DHT22;50739;45.670;11.936;2023-08-24T09:49:54;32.88;55.85
62476;DHT22;50739;45.670;11.936;2023-08-24T09:54:56;33.10;56.32
62476;DHT22;50739;45.670;11.936;2023-08-24T10:00:01;33.23;55.42
62476;DHT22;50739;45.670;11.936;2023-08-24T10:05:12;33.40;55.64
62476;DHT22;50739;45.670;11.936;2023-08-24T10:10:22;33.55;54.85
62476;DHT22;50739;45.670;11.936;2023-08-24T10:15:26;33.61;54.12
62476;DHT22;50739;45.670;11.936;2023-08-24T10:20:30;33.66;53.67
62476;DHT22;50739;45.670;11.936;2023-08-24T10:25:57;33.88;54.60
62476;DHT22;50739;45.670;11.936;2023-08-24T10:37:39;34.00;54.10
62476;DHT22;50739;45.670;11.936;2023-08-24T10:42:44;34.19;53.46
62476;DHT22;50739;45.670;11.936;2023-08-24T10:47:51;34.40;52.49
62476;DHT22;50739;45.670;11.936;2023-08-24T10:52:56;34.55;51.69
62476;DHT22;50739;45.670;11.936;2023-08-24T10:57:59;34.24;53.76
62476;DHT22;50739;45.670;11.936;2023-08-24T11:03:03;34.30;53.55
62476;DHT22;50739;45.670;11.936;2023-08-24T11:08:07;34.72;52.28
62476;DHT22;50739;45.670;11.936;2023-08-24T11:13:11;34.61;51.94
62476;DHT22;50739;45.670;11.936;2023-08-24T11:18:19;34.54;52.08
62476;DHT22;50739;45.670;11.936;2023-08-24T11:23:24;34.85;51.20
62476;DHT22;50739;45.670;11.936;2023-08-24T11:28:28;34.95;51.33
62476;DHT22;50739;45.670;11.936;2023-08-24T11:33:31;35.10;51.05
62476;DHT22;50739;45.670;11.936;2023-08-24T11:38:40;35.19;51.52
62476;DHT22;50739;45.670;11.936;2023-08-24T11:43:43;35.27;50.48
62476;DHT22;50739;45.670;11.936;2023-08-24T11:48:46;35.50;49.16
62476;DHT22;50739;45.670;11.936;2023-08-24T11:53:49;35.25;50.57
62476;DHT22;50739;45.670;11.936;2023-08-24T11:58:52;35.43;48.80
62476;DHT22;50739;45.670;11.936;2023-08-24T12:03:54;35.60;49.30
62476;DHT22;50739;45.670;11.936;2023-08-24T12:08:59;35.67;48.93
62476;DHT22;50739;45.670;11.936;2023-08-24T12:14:01;35.64;48.24
62476;DHT22;50739;45.670;11.936;2023-08-24T12:19:07;35.81;48.01
62476;DHT22;50739;45.670;11.936;2023-08-24T12:24:13;35.89;46.55
62476;DHT22;50739;45.670;11.936;2023-08-24T12:29:18;35.64;45.26
62476;DHT22;50739;45.670;11.936;2023-08-24T12:34:21;35.84;46.48
62476;DHT22;50739;45.670;11.936;2023-08-24T12:39:26;36.39;47.80
62476;DHT22;50739;45.670;11.936;2023-08-24T12:44:31;36.86;45.53
62476;DHT22;50739;45.670;11.936;2023-08-24T12:49:33;36.86;45.68
62476;DHT22;50739;45.670;11.936;2023-08-24T12:54:37;36.86;43.25
62476;DHT22;50739;45.670;11.936;2023-08-24T12:59:40;37.17;42.84
62476;DHT22;50739;45.670;11.936;2023-08-24T13:04:42;37.36;41.32
62476;DHT22;50739;45.670;11.936;2023-08-24T13:09:46;37.07;42.22
62476;DHT22;50739;45.670;11.936;2023-08-24T13:14:49;37.43;42.18
62476;DHT22;50739;45.670;11.936;2023-08-24T13:20:04;38.41;39.96
62476;DHT22;50739;45.670;11.936;2023-08-24T13:25:10;38.39;40.09
62476;DHT22;50739;45.670;11.936;2023-08-24T13:30:13;37.97;40.28
62476;DHT22;50739;45.670;11.936;2023-08-24T13:35:18;38.54;39.87
62476;DHT22;50739;45.670;11.936;2023-08-24T13:40:28;38.44;39.37
62476;DHT22;50739;45.670;11.936;2023-08-24T13:45:33;39.27;37.69
62476;DHT22;50739;45.670;11.936;2023-08-24T13:50:36;39.39;37.53
62476;DHT22;50739;45.670;11.936;2023-08-24T13:55:41;40.05;37.81
62476;DHT22;50739;45.670;11.936;2023-08-24T14:00:46;39.98;37.51
62476;DHT22;50739;45.670;11.936;2023-08-24T14:05:49;39.72;37.68
62476;DHT22;50739;45.670;11.936;2023-08-24T14:10:53;40.43;37.60
62476;DHT22;50739;45.670;11.936;2023-08-24T14:15:59;39.88;38.27
62476;DHT22;50739;45.670;11.936;2023-08-24T14:21:01;39.71;38.35
62476;DHT22;50739;45.670;11.936;2023-08-24T14:26:08;39.94;37.85
62476;DHT22;50739;45.670;11.936;2023-08-24T14:31:11;39.67;37.96
62476;DHT22;50739;45.670;11.936;2023-08-24T14:36:14;40.23;37.16
62476;DHT22;50739;45.670;11.936;2023-08-24T14:41:17;39.47;37.63
62476;DHT22;50739;45.670;11.936;2023-08-24T14:46:20;40.05;37.92
62476;DHT22;50739;45.670;11.936;2023-08-24T14:51:22;40.51;37.46
62476;DHT22;50739;45.670;11.936;2023-08-24T14:56:26;39.85;38.69
62476;DHT22;50739;45.670;11.936;2023-08-24T15:01:29;40.06;38.06
62476;DHT22;50739;45.670;11.936;2023-08-24T15:06:34;39.82;38.79
62476;DHT22;50739;45.670;11.936;2023-08-24T15:11:38;40.23;38.40
62476;DHT22;50739;45.670;11.936;2023-08-24T15:16:40;39.39;39.42
62476;DHT22;50739;45.670;11.936;2023-08-24T15:21:45;40.64;38.26
62476;DHT22;50739;45.670;11.936;2023-08-24T15:26:49;41.11;37.92
62476;DHT22;50739;45.670;11.936;2023-08-24T15:31:54;40.94;38.16
62476;DHT22;50739;45.670;11.936;2023-08-24T15:36:57;41.18;37.91
62476;DHT22;50739;45.670;11.936;2023-08-24T15:42:00;41.01;38.41
62476;DHT22;50739;45.670;11.936;2023-08-24T15:47:07;40.20;39.94
62476;DHT22;50739;45.670;11.936;2023-08-24T15:52:15;40.39;42.28
62476;DHT22;50739;45.670;11.936;2023-08-24T15:57:19;40.43;42.20
62476;DHT22;50739;45.670;11.936;2023-08-24T16:02:24;40.66;41.64
62476;DHT22;50739;45.670;11.936;2023-08-24T16:07:26;40.41;41.93
62476;DHT22;50739;45.670;11.936;2023-08-24T16:12:30;40.47;42.92
62476;DHT22;50739;45.670;11.936;2023-08-24T16:17:32;40.16;43.39
62476;DHT22;50739;45.670;11.936;2023-08-24T16:22:35;39.82;43.62
62476;DHT22;50739;45.670;11.936;2023-08-24T16:27:39;38.93;44.70
62476;DHT22;50739;45.670;11.936;2023-08-24T16:32:41;38.07;46.05
62476;DHT22;50739;45.670;11.936;2023-08-24T16:37:44;37.36;47.66
62476;DHT22;50739;45.670;11.936;2023-08-24T16:42:47;37.15;47.68
62476;DHT22;50739;45.670;11.936;2023-08-24T16:47:50;36.79;48.25
62476;DHT22;50739;45.670;11.936;2023-08-24T16:52:52;36.57;49.02
62476;DHT22;50739;45.670;11.936;2023-08-24T16:57:56;36.42;50.32
62476;DHT22;50739;45.670;11.936;2023-08-24T17:02:58;36.21;51.58
62476;DHT22;50739;45.670;11.936;2023-08-24T17:08:02;35.92;51.45
62476;DHT22;50739;45.670;11.936;2023-08-24T17:13:10;35.91;50.43
62476;DHT22;50739;45.670;11.936;2023-08-24T17:18:13;35.88;50.32
62476;DHT22;50739;45.670;11.936;2023-08-24T17:23:15;35.70;50.97
62476;DHT22;50739;45.670;11.936;2023-08-24T17:28:19;35.44;51.28
62476;DHT22;50739;45.670;11.936;2023-08-24T17:33:22;35.26;51.80
62476;DHT22;50739;45.670;11.936;2023-08-24T17:38:24;35.07;51.93
62476;DHT22;50739;45.670;11.936;2023-08-24T17:43:28;34.98;52.06
62476;DHT22;50739;45.670;11.936;2023-08-24T17:48:30;34.84;52.84
62476;DHT22;50739;45.670;11.936;2023-08-24T17:53:33;34.55;53.18
62476;DHT22;50739;45.670;11.936;2023-08-24T17:58:37;34.40;52.97
62476;DHT22;50739;45.670;11.936;2023-08-24T18:03:40;34.25;53.47
62476;DHT22;50739;45.670;11.936;2023-08-24T18:08:42;34.17;53.01
62476;DHT22;50739;45.670;11.936;2023-08-24T18:13:46;34.02;52.84
62476;DHT22;50739;45.670;11.936;2023-08-24T18:18:49;33.89;53.57
62476;DHT22;50739;45.670;11.936;2023-08-24T18:23:51;33.79;53.90
62476;DHT22;50739;45.670;11.936;2023-08-24T18:28:55;33.59;55.01
62476;DHT22;50739;45.670;11.936;2023-08-24T18:33:57;33.51;55.08
62476;DHT22;50739;45.670;11.936;2023-08-24T18:39:00;33.48;54.99
62476;DHT22;50739;45.670;11.936;2023-08-24T18:44:05;33.44;55.26
62476;DHT22;50739;45.670;11.936;2023-08-24T18:49:07;33.41;54.85
62476;DHT22;50739;45.670;11.936;2023-08-24T18:54:09;33.37;54.65
62476;DHT22;50739;45.670;11.936;2023-08-24T18:59:13;33.30;54.71
62476;DHT22;50739;45.670;11.936;2023-08-24T19:04:16;33.18;55.51
62476;DHT22;50739;45.670;11.936;2023-08-24T19:09:18;32.99;55.77
62476;DHT22;50739;45.670;11.936;2023-08-24T19:14:22;32.88;56.20
62476;DHT22;50739;45.670;11.936;2023-08-24T19:19:25;32.76;57.12
62476;DHT22;50739;45.670;11.936;2023-08-24T19:24:28;32.11;59.26
62476;DHT22;50739;45.670;11.936;2023-08-24T19:29:34;32.12;59.31
62476;DHT22;50739;45.670;11.936;2023-08-24T19:34:37;32.32;58.96
62476;DHT22;50739;45.670;11.936;2023-08-24T19:39:40;32.24;59.26
62476;DHT22;50739;45.670;11.936;2023-08-24T19:44:44;32.07;60.43
62476;DHT22;50739;45.670;11.936;2023-08-24T19:49:47;32.15;60.35
62476;DHT22;50739;45.670;11.936;2023-08-24T19:54:50;32.02;60.40
62476;DHT22;50739;45.670;11.936;2023-08-24T19:59:54;32.04;60.73
62476;DHT22;50739;45.670;11.936;2023-08-24T20:04:56;32.05;61.06
62476;DHT22;50739;45.670;11.936;2023-08-24T20:09:59;31.83;61.31
62476;DHT22;50739;45.670;11.936;2023-08-24T20:15:04;31.93;61.48
62476;DHT22;50739;45.670;11.936;2023-08-24T20:20:08;31.83;61.91
62476;DHT22;50739;45.670;11.936;2023-08-24T20:25:15;31.49;62.53
62476;DHT22;50739;45.670;11.936;2023-08-24T20:30:19;31.42;62.99
62476;DHT22;50739;45.670;11.936;2023-08-24T20:35:22;31.43;62.88
62476;DHT22;50739;45.670;11.936;2023-08-24T20:40:25;31.57;63.33
62476;DHT22;50739;45.670;11.936;2023-08-24T20:45:29;31.30;64.11
62476;DHT22;50739;45.670;11.936;2023-08-24T20:50:32;30.81;65.83
62476;DHT22;50739;45.670;11.936;2023-08-24T20:55:34;30.75;66.15
62476;DHT22;50739;45.670;11.936;2023-08-24T21:00:40;30.85;65.60
62476;DHT22;50739;45.670;11.936;2023-08-24T21:05:43;30.84;65.59
62476;DHT22;50739;45.670;11.936;2023-08-24T21:10:45;30.75;66.00
62476;DHT22;50739;45.670;11.936;2023-08-24T21:15:49;30.80;65.14
62476;DHT22;50739;45.670;11.936;2023-08-24T21:20:55;30.81;65.20
62476;DHT22;50739;45.670;11.936;2023-08-24T21:25:58;30.74;66.08
62476;DHT22;50739;45.670;11.936;2023-08-24T21:31:03;30.71;66.34
62476;DHT22;50739;45.670;11.936;2023-08-24T21:36:09;30.60;66.58
62476;DHT22;50739;45.670;11.936;2023-08-24T21:41:14;30.68;66.32
62476;DHT22;50739;45.670;11.936;2023-08-24T21:46:18;30.75;66.10
62476;DHT22;50739;45.670;11.936;2023-08-24T21:51:22;30.56;66.34
62476;DHT22;50739;45.670;11.936;2023-08-24T21:56:24;30.50;66.41
62476;DHT22;50739;45.670;11.936;2023-08-24T22:01:28;30.46;66.11
62476;DHT22;50739;45.670;11.936;2023-08-24T22:06:31;30.37;66.15
62476;DHT22;50739;45.670;11.936;2023-08-24T22:11:33;30.18;66.92
62476;DHT22;50739;45.670;11.936;2023-08-24T22:16:37;30.09;66.92
62476;DHT22;50739;45.670;11.936;2023-08-24T22:21:40;29.93;67.38
62476;DHT22;50739;45.670;11.936;2023-08-24T22:26:42;29.99;66.82
62476;DHT22;50739;45.670;11.936;2023-08-24T22:31:47;29.81;66.37
62476;DHT22;50739;45.670;11.936;2023-08-24T22:36:50;29.91;65.73
62476;DHT22;50739;45.670;11.936;2023-08-24T22:41:53;30.16;65.28
62476;DHT22;50739;45.670;11.936;2023-08-24T22:46:57;30.12;65.25
62476;DHT22;50739;45.670;11.936;2023-08-24T22:51:59;30.05;65.28
62476;DHT22;50739;45.670;11.936;2023-08-24T22:57:02;30.10;65.25
62476;DHT22;50739;45.670;11.936;2023-08-24T23:02:07;30.06;65.29
62476;DHT22;50739;45.670;11.936;2023-08-24T23:07:09;29.92;66.40
62476;DHT22;50739;45.670;11.936;2023-08-24T23:12:13;29.93;66.20
62476;DHT22;50739;45.670;11.936;2023-08-24T23:17:18;29.99;66.08
62476;DHT22;50739;45.670;11.936;2023-08-24T23:22:22;29.98;66.11
62476;DHT22;50739;45.670;11.936;2023-08-24T23:27:25;29.92;65.70
62476;DHT22;50739;45.670;11.936;2023-08-24T23:32:29;29.86;67.18
62476;DHT22;50739;45.670;11.936;2023-08-24T23:37:31;29.70;67.80
62476;DHT22;50739;45.670;11.936;2023-08-24T23:42:34;29.60;68.77
62476;DHT22;50739;45.670;11.936;2023-08-24T23:47:38;29.50;68.82
62476;DHT22;50739;45.670;11.936;2023-08-24T23:52:41;29.38;69.27
62476;DHT22;50739;45.670;11.936;2023-08-24T23:57:43;29.40;68.95
